sensor_id;sensor_type;location;lat;lon;timestamp;pressure;altitude;pressure_sealevel;temperature;humidity
20622;BME280;10470;42.670;23.354;2022-11-15T00:01:57;95419.91;;;4.68;100.00
20622;BME280;10470;42.670;23.354;2022-11-15T00:04:28;95420.66;;;4.72;100.00
20622;BME280;10470;42.670;23.354;2022-11-15T00:06:59;95419.84;;;4.79;100.00
20622;BME280;10470;42.670;23.354;2022-11-15T00:09:30;95414.09;;;4.73;100.00
20622;BME280;10470;42.670;23.354;2022-11-15T00:12:01;95419.91;;;4.65;100.00
20622;BME280;10470;42.670;23.354;2022-11-15T00:14:32;95425.38;;;4.50;100.00
20622;BME280;10470;42.670;23.354;2022-11-15T00:17:03;95419.94;;;4.54;100.00
20622;BME280;10470;42.670;23.354;2022-11-15T00:19:34;95419.22;;;4.50;100.00
20622;BME280;10470;42.670;23.354;2022-11-15T00:22:05;95414.53;;;4.54;100.00
20622;BME280;10470;42.670;23.354;2022-11-15T00:24:36;95414.97;;;4.52;100.00
20622;BME280;10470;42.670;23.354;2022-11-15T00:27:06;95406.91;;;4.42;100.00
20622;BME280;10470;42.670;23.354;2022-11-15T00:29:38;95408.44;;;4.43;100.00
20622;BME280;10470;42.670;23.354;2022-11-15T00:32:14;95404.94;;;4.49;100.00
20622;BME280;10470;42.670;23.354;2022-11-15T00:34:45;95396.94;;;4.31;100.00
20622;BME280;10470;42.670;23.354;2022-11-15T00:37:16;95396.53;;;4.36;100.00
20622;BME280;10470;42.670;23.354;2022-11-15T00:39:47;95396.13;;;4.42;100.00
20622;BME280;10470;42.670;23.354;2022-11-15T00:42:18;95393.47;;;4.27;100.00
20622;BME280;10470;42.670;23.354;2022-11-15T00:44:45;95390.78;;;4.20;100.00
20622;BME280;10470;42.670;23.354;2022-11-15T00:47:15;95397.72;;;4.25;100.00
20622;BME280;10470;42.670;23.354;2022-11-15T00:49:47;95383.84;;;4.23;100.00
20622;BME280;10470;42.670;23.354;2022-11-15T00:52:18;95391.53;;;4.28;100.00
20622;BME280;10470;42.670;23.354;2022-11-15T00:54:50;95386.88;;;4.35;100.00
20622;BME280;10470;42.670;23.354;2022-11-15T00:57:21;95389.22;;;4.30;100.00
20622;BME280;10470;42.670;23.354;2022-11-15T00:59:52;95384.63;;;4.23;100.00
20622;BME280;10470;42.670;23.354;2022-11-15T01:02:23;95383.81;;;4.33;100.00
20622;BME280;10470;42.670;23.354;2022-11-15T01:04:54;95388.09;;;4.24;100.00
20622;BME280;10470;42.670;23.354;2022-11-15T01:07:26;95384.66;;;4.16;100.00
20622;BME280;10470;42.670;23.354;2022-11-15T01:09:57;95384.66;;;4.12;100.00
20622;BME280;10470;42.670;23.354;2022-11-15T01:12:28;95381.16;;;4.19;100.00
20622;BME280;10470;42.670;23.354;2022-11-15T01:14:59;95361.56;;;4.08;100.00
20622;BME280;10470;42.670;23.354;2022-11-15T01:17:31;95383.88;;;4.15;100.00
20622;BME280;10470;42.670;23.354;2022-11-15T01:20:03;95375.00;;;4.19;100.00
20622;BME280;10470;42.670;23.354;2022-11-15T01:22:32;95375.44;;;4.03;100.00
20622;BME280;10470;42.670;23.354;2022-11-15T01:25:04;95378.91;;;4.03;100.00
20622;BME280;10470;42.670;23.354;2022-11-15T01:27:36;95370.81;;;4.07;100.00
20622;BME280;10470;42.670;23.354;2022-11-15T01:30:07;95374.63;;;4.16;100.00
20622;BME280;10470;42.670;23.354;2022-11-15T01:32:39;95365.78;;;4.09;100.00
20622;BME280;10470;42.670;23.354;2022-11-15T01:35:10;95365.81;;;4.05;100.00
20622;BME280;10470;42.670;23.354;2022-11-15T01:37:42;95373.56;;;3.92;100.00
20622;BME280;10470;42.670;23.354;2022-11-15T01:40:13;95354.34;;;3.69;100.00
20622;BME280;10470;42.670;23.354;2022-11-15T01:42:45;95377.75;;;4.01;100.00
20622;BME280;10470;42.670;23.354;2022-11-15T01:45:16;95366.56;;;4.06;100.00
20622;BME280;10470;42.670;23.354;2022-11-15T01:47:52;95377.75;;;4.04;100.00
20622;BME280;10470;42.670;23.354;2022-11-15T01:50:27;95375.81;;;4.01;100.00
20622;BME280;10470;42.670;23.354;2022-11-15T01:52:58;95375.13;;;3.72;100.00
20622;BME280;10470;42.670;23.354;2022-11-15T01:55:29;95370.13;;;3.74;100.00
20622;BME280;10470;42.670;23.354;2022-11-15T01:58:03;95368.16;;;3.85;100.00
20622;BME280;10470;42.670;23.354;2022-11-15T02:00:32;95373.19;;;3.76;100.00
20622;BME280;10470;42.670;23.354;2022-11-15T02:03:04;95368.16;;;3.85;100.00
20622;BME280;10470;42.670;23.354;2022-11-15T02:05:36;95367.00;;;3.90;100.00
20622;BME280;10470;42.670;23.354;2022-11-15T02:08:08;95366.59;;;3.99;100.00
20622;BME280;10470;42.670;23.354;2022-11-15T02:10:38;95368.91;;;4.07;100.00
20622;BME280;10470;42.670;23.354;2022-11-15T02:13:09;95368.50;;;4.02;100.00
20622;BME280;10470;42.670;23.354;2022-11-15T02:15:52;95372.34;;;4.08;100.00
20622;BME280;10470;42.670;23.354;2022-11-15T02:18:35;95368.88;;;4.11;100.00
20622;BME280;10470;42.670;23.354;2022-11-15T02:21:15;95367.75;;;3.94;100.00
20622;BME280;10470;42.670;23.354;2022-11-15T02:27:43;95370.06;;;3.96;100.00
20622;BME280;10470;42.670;23.354;2022-11-15T02:35:34;95363.19;;;3.69;100.00
20622;BME280;10470;42.670;23.354;2022-11-15T02:38:16;95360.09;;;3.85;100.00
20622;BME280;10470;42.670;23.354;2022-11-15T02:44:12;95360.53;;;3.66;100.00
20622;BME280;10470;42.670;23.354;2022-11-15T02:49:53;95362.06;;;3.60;100.00
20622;BME280;10470;42.670;23.354;2022-11-15T02:52:24;95353.22;;;3.59;100.00
20622;BME280;10470;42.670;23.354;2022-11-15T02:55:01;95364.72;;;3.70;100.00
20622;BME280;10470;42.670;23.354;2022-11-15T03:00:19;95361.25;;;3.77;100.00
20622;BME280;10470;42.670;23.354;2022-11-15T03:05:26;95373.59;;;3.75;100.00
20622;BME280;10470;42.670;23.354;2022-11-15T03:13:37;95372.81;;;3.78;100.00
20622;BME280;10470;42.670;23.354;2022-11-15T03:19:35;95363.56;;;3.75;100.00
20622;BME280;10470;42.670;23.354;2022-11-15T03:22:12;95357.38;;;3.85;100.00
20622;BME280;10470;42.670;23.354;2022-11-15T03:24:47;95357.38;;;3.89;100.00
20622;BME280;10470;42.670;23.354;2022-11-15T03:27:23;95356.22;;;3.97;100.00
20622;BME280;10470;42.670;23.354;2022-11-15T03:29:59;95360.84;;;3.93;100.00
20622;BME280;10470;42.670;23.354;2022-11-15T03:32:34;95351.25;;;3.78;100.00
20622;BME280;10470;42.670;23.354;2022-11-15T03:35:11;95354.66;;;3.89;100.00
20622;BME280;10470;42.670;23.354;2022-11-15T03:37:45;95334.59;;;4.04;100.00
20622;BME280;10470;42.670;23.354;2022-11-15T03:40:25;95341.91;;;4.11;100.00
20622;BME280;10470;42.670;23.354;2022-11-15T03:45:58;95348.06;;;4.11;100.00
20622;BME280;10470;42.670;23.354;2022-11-15T03:48:34;95339.22;;;4.11;100.00
20622;BME280;10470;42.670;23.354;2022-11-15T03:51:05;95325.00;;;4.00;100.00
20622;BME280;10470;42.670;23.354;2022-11-15T03:53:36;95331.97;;;3.97;100.00
20622;BME280;10470;42.670;23.354;2022-11-15T03:56:08;95334.25;;;4.02;100.00
20622;BME280;10470;42.670;23.354;2022-11-15T03:58:39;95325.78;;;3.97;100.00
20622;BME280;10470;42.670;23.354;2022-11-15T04:01:12;95331.59;;;3.88;100.00
20622;BME280;10470;42.670;23.354;2022-11-15T04:03:43;95337.06;;;3.56;100.00
20622;BME280;10470;42.670;23.354;2022-11-15T04:06:15;95334.66;;;3.86;100.00
20622;BME280;10470;42.670;23.354;2022-11-15T04:08:46;95326.22;;;3.81;100.00
20622;BME280;10470;42.670;23.354;2022-11-15T04:11:19;95336.19;;;3.84;100.00
20622;BME280;10470;42.670;23.354;2022-11-15T04:13:50;95327.75;;;3.82;100.00
20622;BME280;10470;42.670;23.354;2022-11-15T04:16:23;95330.84;;;3.80;100.00
20622;BME280;10470;42.670;23.354;2022-11-15T04:18:54;95330.78;;;3.98;100.00
20622;BME280;10470;42.670;23.354;2022-11-15T04:21:42;95314.34;;;3.42;100.00
20622;BME280;10470;42.670;23.354;2022-11-15T04:24:29;95315.94;;;3.22;100.00
20622;BME280;10470;42.670;23.354;2022-11-15T04:27:01;95310.91;;;3.49;100.00
20622;BME280;10470;42.670;23.354;2022-11-15T04:29:33;95316.72;;;3.22;100.00
20622;BME280;10470;42.670;23.354;2022-11-15T04:32:06;95317.88;;;3.32;100.00
20622;BME280;10470;42.670;23.354;2022-11-15T04:34:38;95320.56;;;3.32;100.00
20622;BME280;10470;42.670;23.354;2022-11-15T04:37:10;95321.66;;;3.63;100.00
20622;BME280;10470;42.670;23.354;2022-11-15T04:39:42;95322.78;;;3.62;100.00
20622;BME280;10470;42.670;23.354;2022-11-15T04:42:14;95326.25;;;3.74;100.00
20622;BME280;10470;42.670;23.354;2022-11-15T04:44:45;95326.28;;;3.52;100.00
20622;BME280;10470;42.670;23.354;2022-11-15T04:47:13;95323.19;;;3.57;100.00
20622;BME280;10470;42.670;23.354;2022-11-15T04:49:45;95323.56;;;3.70;100.00
20622;BME280;10470;42.670;23.354;2022-11-15T04:52:17;95318.91;;;3.70;100.00
20622;BME280;10470;42.670;23.354;2022-11-15T04:54:49;95331.63;;;3.70;100.00
20622;BME280;10470;42.670;23.354;2022-11-15T04:57:22;95327.03;;;3.60;100.00
20622;BME280;10470;42.670;23.354;2022-11-15T04:59:54;95298.59;;;3.44;100.00
20622;BME280;10470;42.670;23.354;2022-11-15T05:02:26;95317.41;;;3.66;100.00
20622;BME280;10470;42.670;23.354;2022-11-15T05:05:13;95320.09;;;3.66;100.00
20622;BME280;10470;42.670;23.354;2022-11-15T05:07:46;95319.38;;;3.51;100.00
20622;BME280;10470;42.670;23.354;2022-11-15T05:10:18;95319.72;;;3.64;100.00
20622;BME280;10470;42.670;23.354;2022-11-15T05:12:50;95320.47;;;3.68;100.00
20622;BME280;10470;42.670;23.354;2022-11-15T05:15:22;95319.72;;;3.67;100.00
20622;BME280;10470;42.670;23.354;2022-11-15T05:17:58;95318.53;;;3.72;100.00
20622;BME280;10470;42.670;23.354;2022-11-15T05:20:32;95312.72;;;3.88;100.00
20622;BME280;10470;42.670;23.354;2022-11-15T05:22:59;95308.06;;;3.96;100.00
20622;BME280;10470;42.670;23.354;2022-11-15T05:25:31;95316.53;;;4.05;100.00
20622;BME280;10470;42.670;23.354;2022-11-15T05:28:03;95315.44;;;3.81;100.00
20622;BME280;10470;42.670;23.354;2022-11-15T05:30:35;95310.00;;;3.91;100.00
20622;BME280;10470;42.670;23.354;2022-11-15T05:33:05;95314.22;;;3.96;100.00
20622;BME280;10470;42.670;23.354;2022-11-15T05:35:39;95306.56;;;3.84;100.00
20622;BME280;10470;42.670;23.354;2022-11-15T05:38:12;95303.78;;;4.02;100.00
20622;BME280;10470;42.670;23.354;2022-11-15T05:40:45;95295.31;;;4.10;100.00
20622;BME280;10470;42.670;23.354;2022-11-15T05:43:17;95304.22;;;4.00;100.00
20622;BME280;10470;42.670;23.354;2022-11-15T05:45:50;95301.91;;;3.91;100.00
20622;BME280;10470;42.670;23.354;2022-11-15T05:48:22;95302.63;;;4.10;100.00
20622;BME280;10470;42.670;23.354;2022-11-15T05:50:54;95304.13;;;4.14;100.00
20622;BME280;10470;42.670;23.354;2022-11-15T05:53:22;95306.03;;;4.21;100.00
20622;BME280;10470;42.670;23.354;2022-11-15T05:55:53;95298.38;;;4.09;100.00
20622;BME280;10470;42.670;23.354;2022-11-15T05:58:26;95303.03;;;4.05;100.00
20622;BME280;10470;42.670;23.354;2022-11-15T06:00:58;95302.66;;;4.03;100.00
20622;BME280;10470;42.670;23.354;2022-11-15T06:03:30;95301.81;;;4.16;100.00
20622;BME280;10470;42.670;23.354;2022-11-15T06:06:02;95309.16;;;4.16;100.00
20622;BME280;10470;42.670;23.354;2022-11-15T06:08:35;95311.13;;;4.05;100.00
20622;BME280;10470;42.670;23.354;2022-11-15T06:11:07;95311.44;;;4.18;100.00
20622;BME280;10470;42.670;23.354;2022-11-15T06:13:37;95304.53;;;4.13;100.00
20622;BME280;10470;42.670;23.354;2022-11-15T06:16:04;95310.72;;;4.10;100.00
20622;BME280;10470;42.670;23.354;2022-11-15T06:18:37;95315.31;;;4.16;100.00
20622;BME280;10470;42.670;23.354;2022-11-15T06:21:08;95319.91;;;4.20;100.00
20622;BME280;10470;42.670;23.354;2022-11-15T06:23:41;95314.16;;;4.14;100.00
20622;BME280;10470;42.670;23.354;2022-11-15T06:26:14;95304.19;;;4.07;100.00
20622;BME280;10470;42.670;23.354;2022-11-15T06:28:44;95311.00;;;4.30;100.00
20622;BME280;10470;42.670;23.354;2022-11-15T06:31:11;95314.44;;;4.30;100.00
20622;BME280;10470;42.670;23.354;2022-11-15T06:33:44;95302.50;;;4.38;100.00
20622;BME280;10470;42.670;23.354;2022-11-15T06:36:16;95312.00;;;4.54;100.00
20622;BME280;10470;42.670;23.354;2022-11-15T06:38:49;95308.91;;;4.63;100.00
20622;BME280;10470;42.670;23.354;2022-11-15T06:41:21;95307.69;;;4.71;100.00
20622;BME280;10470;42.670;23.354;2022-11-15T06:43:54;95305.66;;;4.82;100.00
20622;BME280;10470;42.670;23.354;2022-11-15T06:46:26;95314.19;;;4.80;100.00
20622;BME280;10470;42.670;23.354;2022-11-15T06:48:58;95310.19;;;4.33;100.00
20622;BME280;10470;42.670;23.354;2022-11-15T06:51:30;95309.44;;;4.32;100.00
20622;BME280;10470;42.670;23.354;2022-11-15T06:54:01;95316.75;;;4.35;100.00
20622;BME280;10470;42.670;23.354;2022-11-15T06:56:28;95313.53;;;4.58;100.00
20622;BME280;10470;42.670;23.354;2022-11-15T06:59:00;95303.75;;;4.79;100.00
20622;BME280;10470;42.670;23.354;2022-11-15T07:01:32;95309.63;;;4.70;100.00
20622;BME280;10470;42.670;23.354;2022-11-15T07:04:04;95303.09;;;4.64;100.00
20622;BME280;10470;42.670;23.354;2022-11-15T07:06:36;95303.91;;;4.57;100.00
20622;BME280;10470;42.670;23.354;2022-11-15T07:09:09;95305.28;;;4.84;100.00
20622;BME280;10470;42.670;23.354;2022-11-15T07:11:42;95306.22;;;5.11;100.00
20622;BME280;10470;42.670;23.354;2022-11-15T07:14:15;95308.00;;;4.80;100.00
20622;BME280;10470;42.670;23.354;2022-11-15T07:16:46;95301.81;;;4.79;100.00
20622;BME280;10470;42.670;23.354;2022-11-15T07:19:17;95291.72;;;4.91;100.00
20622;BME280;10470;42.670;23.354;2022-11-15T07:21:44;95294.63;;;5.11;100.00
20622;BME280;10470;42.670;23.354;2022-11-15T07:24:16;95293.44;;;5.15;100.00
20622;BME280;10470;42.670;23.354;2022-11-15T07:26:49;95299.94;;;5.25;100.00
20622;BME280;10470;42.670;23.354;2022-11-15T07:29:21;95308.38;;;5.31;100.00
20622;BME280;10470;42.670;23.354;2022-11-15T07:31:54;95307.38;;;5.10;100.00
20622;BME280;10470;42.670;23.354;2022-11-15T07:34:27;95307.00;;;5.12;100.00
20622;BME280;10470;42.670;23.354;2022-11-15T07:36:59;95309.53;;;5.30;100.00
20622;BME280;10470;42.670;23.354;2022-11-15T07:39:29;95303.03;;;5.23;100.00
20622;BME280;10470;42.670;23.354;2022-11-15T07:41:56;95304.84;;;4.89;100.00
20622;BME280;10470;42.670;23.354;2022-11-15T07:44:44;95306.28;;;5.00;100.00
20622;BME280;10470;42.670;23.354;2022-11-15T07:47:17;95301.31;;;4.99;100.00
20622;BME280;10470;42.670;23.354;2022-11-15T07:49:50;95313.28;;;4.94;100.00
20622;BME280;10470;42.670;23.354;2022-11-15T07:52:23;95298.94;;;5.04;100.00
20622;BME280;10470;42.670;23.354;2022-11-15T07:54:55;95300.34;;;5.20;100.00
20622;BME280;10470;42.670;23.354;2022-11-15T07:57:25;95311.81;;;5.31;100.00
20622;BME280;10470;42.670;23.354;2022-11-15T07:59:53;95301.00;;;5.35;100.00
20622;BME280;10470;42.670;23.354;2022-11-15T08:02:26;95309.88;;;5.35;100.00
20622;BME280;10470;42.670;23.354;2022-11-15T08:04:58;95307.00;;;5.53;100.00
20622;BME280;10470;42.670;23.354;2022-11-15T08:07:31;95302.72;;;5.56;100.00
20622;BME280;10470;42.670;23.354;2022-11-15T08:10:04;95313.09;;;5.61;100.00
20622;BME280;10470;42.670;23.354;2022-11-15T08:12:36;95305.16;;;5.81;100.00
20622;BME280;10470;42.670;23.354;2022-11-15T08:15:09;95307.47;;;5.82;100.00
20622;BME280;10470;42.670;23.354;2022-11-15T08:17:41;95303.69;;;5.76;100.00
20622;BME280;10470;42.670;23.354;2022-11-15T08:20:14;95299.34;;;5.82;100.00
20622;BME280;10470;42.670;23.354;2022-11-15T08:22:44;95302.56;;;5.70;100.00
20622;BME280;10470;42.670;23.354;2022-11-15T08:25:12;95294.84;;;5.72;100.00
20622;BME280;10470;42.670;23.354;2022-11-15T08:27:45;95291.00;;;5.69;100.00
20622;BME280;10470;42.670;23.354;2022-11-15T08:30:17;95299.81;;;5.77;100.00
20622;BME280;10470;42.670;23.354;2022-11-15T08:32:49;95303.50;;;5.56;100.00
20622;BME280;10470;42.670;23.354;2022-11-15T08:35:16;95305.88;;;5.47;100.00
20622;BME280;10470;42.670;23.354;2022-11-15T08:37:49;95300.13;;;5.45;100.00
20622;BME280;10470;42.670;23.354;2022-11-15T08:40:21;95298.91;;;5.50;100.00
20622;BME280;10470;42.670;23.354;2022-11-15T08:42:54;95284.13;;;5.61;100.00
20622;BME280;10470;42.670;23.354;2022-11-15T08:45:26;95282.97;;;5.62;100.00
20622;BME280;10470;42.670;23.354;2022-11-15T08:47:56;95277.88;;;5.68;100.00
20622;BME280;10470;42.670;23.354;2022-11-15T08:50:24;95275.75;;;5.86;100.00
20622;BME280;10470;42.670;23.354;2022-11-15T08:52:50;95285.25;;;6.02;100.00
20622;BME280;10470;42.670;23.354;2022-11-15T08:55:16;95278.31;;;6.01;100.00
20622;BME280;10470;42.670;23.354;2022-11-15T08:58:01;95283.59;;;6.11;100.00
20622;BME280;10470;42.670;23.354;2022-11-15T09:00:27;95267.19;;;6.26;100.00
20622;BME280;10470;42.670;23.354;2022-11-15T09:02:52;95269.47;;;6.27;100.00
20622;BME280;10470;42.670;23.354;2022-11-15T09:05:17;95239.84;;;6.17;100.00
20622;BME280;10470;42.670;23.354;2022-11-15T09:07:43;95265.69;;;6.48;100.00
20622;BME280;10470;42.670;23.354;2022-11-15T09:10:09;95269.53;;;6.51;100.00
20622;BME280;10470;42.670;23.354;2022-11-15T09:12:35;95261.28;;;6.62;100.00
20622;BME280;10470;42.670;23.354;2022-11-15T09:15:00;95250.94;;;6.53;100.00
20622;BME280;10470;42.670;23.354;2022-11-15T09:17:26;95255.13;;;6.57;100.00
20622;BME280;10470;42.670;23.354;2022-11-15T09:19:51;95257.47;;;6.28;100.00
20622;BME280;10470;42.670;23.354;2022-11-15T09:22:17;95258.91;;;6.37;100.00
20622;BME280;10470;42.670;23.354;2022-11-15T09:24:43;95252.69;;;6.40;100.00
20622;BME280;10470;42.670;23.354;2022-11-15T09:27:08;95246.44;;;6.43;100.00
20622;BME280;10470;42.670;23.354;2022-11-15T09:29:34;95243.63;;;6.50;100.00
20622;BME280;10470;42.670;23.354;2022-11-15T09:31:59;95229.91;;;6.64;100.00
20622;BME280;10470;42.670;23.354;2022-11-15T09:34:25;95244.78;;;6.76;100.00
20622;BME280;10470;42.670;23.354;2022-11-15T09:36:50;95237.03;;;6.78;100.00
20622;BME280;10470;42.670;23.354;2022-11-15T09:39:15;95226.97;;;6.78;100.00
20622;BME280;10470;42.670;23.354;2022-11-15T09:50:47;95226.19;;;7.02;100.00
20622;BME280;10470;42.670;23.354;2022-11-15T09:53:11;95214.81;;;7.10;100.00
20622;BME280;10470;42.670;23.354;2022-11-15T09:55:47;95218.28;;;7.34;100.00
20622;BME280;10470;42.670;23.354;2022-11-15T09:58:26;95213.97;;;7.57;100.00
20622;BME280;10470;42.670;23.354;2022-11-15T10:00:54;95210.28;;;7.67;100.00
20622;BME280;10470;42.670;23.354;2022-11-15T10:03:27;95204.72;;;7.74;100.00
20622;BME280;10470;42.670;23.354;2022-11-15T10:05:57;95204.06;;;8.06;100.00
20622;BME280;10470;42.670;23.354;2022-11-15T10:08:30;95209.94;;;8.21;100.00
20622;BME280;10470;42.670;23.354;2022-11-15T10:11:02;95195.38;;;8.31;100.00
20622;BME280;10470;42.670;23.354;2022-11-15T10:13:32;95200.28;;;8.20;100.00
20622;BME280;10470;42.670;23.354;2022-11-15T10:19:16;95190.78;;;8.12;100.00
20622;BME280;10470;42.670;23.354;2022-11-15T10:24:25;95188.78;;;9.44;100.00
20622;BME280;10470;42.670;23.354;2022-11-15T10:26:55;95192.38;;;9.82;100.00
20622;BME280;10470;42.670;23.354;2022-11-15T10:29:22;95203.00;;;9.64;100.00
20622;BME280;10470;42.670;23.354;2022-11-15T10:31:49;95188.06;;;10.11;100.00
20622;BME280;10470;42.670;23.354;2022-11-15T10:34:19;95189.03;;;10.17;100.00
20622;BME280;10470;42.670;23.354;2022-11-15T10:36:46;95177.09;;;10.53;100.00
20622;BME280;10470;42.670;23.354;2022-11-15T10:39:19;95173.84;;;10.45;100.00
20622;BME280;10470;42.670;23.354;2022-11-15T10:41:44;95173.81;;;10.58;100.00
20622;BME280;10470;42.670;23.354;2022-11-15T10:46:37;95163.69;;;10.07;100.00
20622;BME280;10470;42.670;23.354;2022-11-15T10:51:48;95158.06;;;11.00;100.00
20622;BME280;10470;42.670;23.354;2022-11-15T10:57:31;95163.25;;;11.42;100.00
20622;BME280;10470;42.670;23.354;2022-11-15T11:00:01;95154.63;;;10.74;100.00
20622;BME280;10470;42.670;23.354;2022-11-15T11:02:36;95144.81;;;10.77;100.00
20622;BME280;10470;42.670;23.354;2022-11-15T11:05:06;95130.63;;;10.82;100.00
20622;BME280;10470;42.670;23.354;2022-11-15T11:07:34;95138.03;;;11.16;100.00
20622;BME280;10470;42.670;23.354;2022-11-15T11:10:22;95132.78;;;11.44;100.00
20622;BME280;10470;42.670;23.354;2022-11-15T11:12:47;95127.06;;;11.07;100.00
20622;BME280;10470;42.670;23.354;2022-11-15T11:15:15;95127.19;;;11.91;100.00
20622;BME280;10470;42.670;23.354;2022-11-15T11:20:58;95121.19;;;12.06;100.00
20622;BME280;10470;42.670;23.354;2022-11-15T11:31:58;95106.47;;;11.81;100.00
20622;BME280;10470;42.670;23.354;2022-11-15T11:37:46;95092.69;;;12.75;100.00
20622;BME280;10470;42.670;23.354;2022-11-15T11:40:16;95082.97;;;13.20;100.00
20622;BME280;10470;42.670;23.354;2022-11-15T11:49:08;95069.75;;;13.09;100.00
20622;BME280;10470;42.670;23.354;2022-11-15T11:54:38;95076.59;;;12.58;100.00
20622;BME280;10470;42.670;23.354;2022-11-15T11:57:26;95067.75;;;13.55;100.00
20622;BME280;10470;42.670;23.354;2022-11-15T12:02:48;95060.97;;;13.84;100.00
20622;BME280;10470;42.670;23.354;2022-11-15T12:07:54;95037.13;;;13.75;100.00
20622;BME280;10470;42.670;23.354;2022-11-15T12:10:29;95041.94;;;13.01;100.00
20622;BME280;10470;42.670;23.354;2022-11-15T12:13:13;95004.59;;;12.71;100.00
20622;BME280;10470;42.670;23.354;2022-11-15T12:15:52;95037.28;;;13.72;100.00
20622;BME280;10470;42.670;23.354;2022-11-15T12:18:18;95032.41;;;13.76;100.00
20622;BME280;10470;42.670;23.354;2022-11-15T12:21:04;95029.09;;;13.63;100.00
20622;BME280;10470;42.670;23.354;2022-11-15T12:23:38;95027.56;;;13.62;100.00
20622;BME280;10470;42.670;23.354;2022-11-15T12:26:09;95017.78;;;14.36;100.00
20622;BME280;10470;42.670;23.354;2022-11-15T12:28:47;95015.00;;;14.46;100.00
20622;BME280;10470;42.670;23.354;2022-11-15T12:31:22;95015.22;;;14.66;100.00
20622;BME280;10470;42.670;23.354;2022-11-15T12:33:49;95003.72;;;14.92;100.00
20622;BME280;10470;42.670;23.354;2022-11-15T12:38:53;95008.50;;;14.10;100.00
20622;BME280;10470;42.670;23.354;2022-11-15T12:41:21;95001.84;;;14.35;100.00
20622;BME280;10470;42.670;23.354;2022-11-15T12:43:48;95002.06;;;14.46;100.00
20622;BME280;10470;42.670;23.354;2022-11-15T12:48:59;94984.78;;;14.07;100.00
20622;BME280;10470;42.670;23.354;2022-11-15T13:00:00;94992.88;;;14.73;100.00
20622;BME280;10470;42.670;23.354;2022-11-15T13:07:57;94978.72;;;14.75;100.00
20622;BME280;10470;42.670;23.354;2022-11-15T13:12:56;94970.75;;;14.14;100.00
20622;BME280;10470;42.670;23.354;2022-11-15T13:18:26;94971.53;;;14.29;100.00
20622;BME280;10470;42.670;23.354;2022-11-15T13:20:53;94968.97;;;13.26;100.00
20622;BME280;10470;42.670;23.354;2022-11-15T13:23:18;94960.91;;;13.98;100.00
20622;BME280;10470;42.670;23.354;2022-11-15T13:28:22;94956.31;;;13.80;100.00
20622;BME280;10470;42.670;23.354;2022-11-15T13:30:57;94959.13;;;13.95;100.00
20622;BME280;10470;42.670;23.354;2022-11-15T13:33:34;94952.38;;;13.39;100.00
20622;BME280;10470;42.670;23.354;2022-11-15T13:36:07;94948.31;;;13.16;100.00
20622;BME280;10470;42.670;23.354;2022-11-15T13:38:38;94938.06;;;12.64;100.00
20622;BME280;10470;42.670;23.354;2022-11-15T13:43:43;94945.66;;;12.70;100.00
20622;BME280;10470;42.670;23.354;2022-11-15T13:48:44;94952.06;;;12.30;100.00
20622;BME280;10470;42.670;23.354;2022-11-15T13:56:27;94935.69;;;11.80;100.00
20622;BME280;10470;42.670;23.354;2022-11-15T13:58:55;94930.94;;;11.62;100.00
20622;BME280;10470;42.670;23.354;2022-11-15T14:01:21;94934.09;;;11.51;100.00
20622;BME280;10470;42.670;23.354;2022-11-15T14:04:06;94924.34;;;11.41;100.00
20622;BME280;10470;42.670;23.354;2022-11-15T14:06:32;94931.63;;;11.04;100.00
20622;BME280;10470;42.670;23.354;2022-11-15T14:11:26;94925.75;;;11.14;100.00
20622;BME280;10470;42.670;23.354;2022-11-15T14:19:05;94909.56;;;10.89;100.00
20622;BME280;10470;42.670;23.354;2022-11-15T14:21:31;94927.28;;;11.15;100.00
20622;BME280;10470;42.670;23.354;2022-11-15T14:24:23;94914.69;;;10.87;100.00
20622;BME280;10470;42.670;23.354;2022-11-15T14:26:54;94920.50;;;10.67;100.00
20622;BME280;10470;42.670;23.354;2022-11-15T14:29:29;94913.16;;;10.77;100.00
20622;BME280;10470;42.670;23.354;2022-11-15T14:32:15;94923.91;;;10.80;100.00
20622;BME280;10470;42.670;23.354;2022-11-15T14:34:41;94919.72;;;10.44;100.00
20622;BME280;10470;42.670;23.354;2022-11-15T14:37:28;94922.28;;;10.39;100.00
20622;BME280;10470;42.670;23.354;2022-11-15T14:39:54;94914.34;;;10.19;100.00
20622;BME280;10470;42.670;23.354;2022-11-15T14:42:21;94922.72;;;10.24;100.00
20622;BME280;10470;42.670;23.354;2022-11-15T14:44:47;94916.75;;;10.17;100.00
20622;BME280;10470;42.670;23.354;2022-11-15T14:47:13;94914.97;;;10.01;100.00
20622;BME280;10470;42.670;23.354;2022-11-15T14:49:39;94906.06;;;9.88;100.00
20622;BME280;10470;42.670;23.354;2022-11-15T14:52:32;94904.63;;;9.61;100.00
20622;BME280;10470;42.670;23.354;2022-11-15T14:55:00;94915.69;;;9.67;100.00
20622;BME280;10470;42.670;23.354;2022-11-15T14:57:28;94911.91;;;9.51;100.00
20622;BME280;10470;42.670;23.354;2022-11-15T14:59:54;94897.78;;;9.44;100.00
20622;BME280;10470;42.670;23.354;2022-11-15T15:02:21;94905.50;;;9.32;100.00
20622;BME280;10470;42.670;23.354;2022-11-15T15:04:48;94912.03;;;9.35;100.00
20622;BME280;10470;42.670;23.354;2022-11-15T15:07:14;94914.31;;;9.36;100.00
20622;BME280;10470;42.670;23.354;2022-11-15T15:09:39;94919.97;;;9.16;100.00
20622;BME280;10470;42.670;23.354;2022-11-15T15:14:40;94904.00;;;9.06;100.00
20622;BME280;10470;42.670;23.354;2022-11-15T15:17:06;94899.97;;;9.10;100.00
20622;BME280;10470;42.670;23.354;2022-11-15T15:19:31;94901.91;;;8.84;100.00
20622;BME280;10470;42.670;23.354;2022-11-15T15:21:57;94906.94;;;8.99;100.00
20622;BME280;10470;42.670;23.354;2022-11-15T15:24:22;94907.25;;;9.13;100.00